Time;durP1;ratioP1;P1;durP2;ratioP2;P2;SDS_P1;SDS_P2;PMS_P1;PMS_P2;Temp;Humidity;BMP_temperature;BMP_pressure;BME280_temperature;BME280_humidity;BME280_pressure;Samples;Min_cycle;Max_cycle;Signal;HPM_P1;HPM_P2
2021/12/05 00:19:36;;;;;;;16.35;10.63;;;;;;;1.38;100.00;99697.75;10287570;28;20094;-68
2021/12/05 00:24:37;;;;;;;14.05;10.00;;;;;;;1.68;100.00;99706.66;10297308;28;20044;-70
2021/12/05 00:29:46;;;;;;;15.15;10.27;;;;;;;1.63;100.00;99710.19;10289514;28;20083;-69
2021/12/05 00:35:32;;;;;;;14.65;10.32;;;;;;;1.80;100.00;99714.38;10288437;28;20048;-72
2021/12/05 00:51:05;;;;;;;14.98;11.27;;;;;;;1.81;100.00;99743.75;10269345;28;20053;-69
2021/12/05 00:56:05;;;;;;;14.57;9.23;;;;;;;1.67;100.00;99742.75;10289307;28;20408;-71
2021/12/05 01:16:19;;;;;;;16.83;11.68;;;;;;;1.64;100.00;99768.38;10281422;28;20041;-71
2021/12/05 01:21:19;;;;;;;13.45;9.40;;;;;;;1.62;100.00;99761.66;10265603;28;20045;-71
2021/12/05 01:26:23;;;;;;;15.70;10.50;;;;;;;1.60;100.00;99763.84;10289288;28;20109;-69
2021/12/05 01:31:36;;;;;;;12.88;9.73;;;;;;;1.75;100.00;99769.13;10272941;28;20041;-67
2021/12/05 01:36:56;;;;;;;14.13;9.73;;;;;;;1.66;100.00;99773.50;10288159;28;20060;-67
2021/12/05 01:47:35;;;;;;;15.55;9.43;;;;;;;1.49;100.00;99773.91;10287648;28;20412;-67
2021/12/05 02:08:50;;;;;;;12.32;8.77;;;;;;;1.58;100.00;99792.94;10289139;28;20119;-68
2021/12/05 02:40:21;;;;;;;12.90;9.73;;;;;;;1.72;100.00;99810.13;10276475;28;20094;-70
2021/12/05 02:45:17;;;;;;;13.48;10.05;;;;;;;1.77;100.00;99822.75;10292203;28;20494;-70
2021/12/05 02:50:15;;;;;;;14.30;9.93;;;;;;;1.62;100.00;99815.56;10289178;28;20069;-69
2021/12/05 02:55:36;;;;;;;15.05;10.40;;;;;;;1.56;100.00;99820.19;10286101;28;20102;-67
2021/12/05 03:00:42;;;;;;;16.10;11.63;;;;;;;1.73;100.00;99822.50;10279177;28;20056;-67
2021/12/05 03:05:43;;;;;;;15.13;11.48;;;;;;;1.79;100.00;99825.97;10305145;28;20152;-67
2021/12/05 03:10:39;;;;;;;14.55;11.00;;;;;;;1.78;100.00;99825.13;10284586;28;20044;-66
2021/12/05 03:15:36;;;;;;;23.83;13.63;;;;;;;1.59;100.00;99826.91;10297551;28;20450;-68
2021/12/05 03:20:33;;;;;;;19.35;11.25;;;;;;;1.68;100.00;99826.03;10288559;28;20041;-70
2021/12/05 03:25:30;;;;;;;18.15;11.60;;;;;;;1.84;100.00;99840.19;10289366;28;20040;-67
2021/12/05 03:30:28;;;;;;;19.77;12.32;;;;;;;1.76;100.00;99837.28;10298449;28;20359;-68
2021/12/05 03:35:28;;;;;;;19.15;12.00;;;;;;;1.71;100.00;99835.44;10283291;28;20095;-69
2021/12/05 03:40:28;;;;;;;21.02;13.68;;;;;;;1.71;100.00;99838.13;10283679;28;20064;-67
2021/12/05 03:45:29;;;;;;;20.40;13.15;;;;;;;1.76;100.00;99832.69;10277787;28;20455;-68
2021/12/05 03:50:27;;;;;;;24.08;14.93;;;;;;;1.70;100.00;99844.63;10276150;28;20498;-67
2021/12/05 03:55:23;;;;;;;23.60;13.88;;;;;;;1.71;100.00;99846.22;10283543;28;20048;-66
2021/12/05 04:00:23;;;;;;;24.48;14.73;;;;;;;1.70;100.00;99852.69;10285574;28;20704;-68
2021/12/05 04:05:20;;;;;;;28.08;14.55;;;;;;;1.70;100.00;99863.47;10284474;28;20068;-69
2021/12/05 04:10:18;;;;;;;25.02;14.90;;;;;;;1.81;100.00;99867.72;10284473;28;20075;-67
2021/12/05 04:15:15;;;;;;;26.38;16.13;;;;;;;1.70;100.00;99866.19;10280122;28;20080;-66
2021/12/05 04:20:14;;;;;;;26.67;15.88;;;;;;;1.77;100.00;99874.75;10294119;28;20064;-71
2021/12/05 04:25:14;;;;;;;26.92;14.48;;;;;;;1.86;100.00;99896.53;10283603;28;20037;-70
2021/12/05 04:30:13;;;;;;;27.80;14.85;;;;;;;1.82;100.00;99906.25;10276626;28;20057;-68
2021/12/05 04:35:10;;;;;;;29.00;16.02;;;;;;;1.67;100.00;99909.84;10278907;28;20064;-70
2021/12/05 04:40:08;;;;;;;27.35;17.30;;;;;;;1.81;100.00;99910.84;10280207;28;20492;-68
2021/12/05 04:45:10;;;;;;;28.38;15.70;;;;;;;1.72;100.00;99917.91;10282754;28;20078;-69
2021/12/05 04:50:08;;;;;;;31.35;17.40;;;;;;;1.76;100.00;99918.94;10288266;28;20048;-68
2021/12/05 04:55:06;;;;;;;31.67;17.33;;;;;;;1.71;100.00;99927.06;10276279;28;20072;-68
2021/12/05 05:00:14;;;;;;;32.95;15.57;;;;;;;1.60;100.00;99936.28;10272126;28;20085;-68
2021/12/05 05:05:12;;;;;;;32.13;16.73;;;;;;;1.61;100.00;99943.31;10285036;28;20094;-67
2021/12/05 05:10:15;;;;;;;35.00;17.60;;;;;;;1.69;100.00;99956.19;10290725;28;20555;-67
2021/12/05 05:15:14;;;;;;;38.88;18.50;;;;;;;1.63;100.00;99960.00;10286511;28;20547;-69
2021/12/05 05:20:27;;;;;;;35.83;16.98;;;;;;;1.65;100.00;99965.94;10275696;28;20483;-68
2021/12/05 05:26:05;;;;;;;39.13;17.63;;;;;;;1.52;100.00;99967.31;10281700;28;20056;-67
2021/12/05 05:46:50;;;;;;;30.13;16.17;;;;;;;1.82;100.00;99998.72;10286594;28;20106;-68
2021/12/05 05:51:44;;;;;;;34.08;17.17;;;;;;;1.74;100.00;100007.38;10276004;28;20100;-67
2021/12/05 05:56:43;;;;;;;26.70;16.05;;;;;;;1.68;100.00;100019.25;10302667;28;20554;-69
2021/12/05 06:01:58;;;;;;;31.42;16.55;;;;;;;1.72;100.00;100023.03;10280139;28;20106;-69
2021/12/05 06:06:55;;;;;;;30.75;15.90;;;;;;;1.68;100.00;100030.03;10305816;28;20044;-69
2021/12/05 06:11:51;;;;;;;27.85;15.65;;;;;;;1.78;100.00;100023.78;10281005;28;20508;-68
2021/12/05 06:16:48;;;;;;;30.60;16.25;;;;;;;1.65;100.00;100028.69;10289516;28;20041;-69
2021/12/05 06:21:44;;;;;;;27.55;17.02;;;;;;;1.79;100.00;100026.22;10280494;28;20086;-69
2021/12/05 06:26:42;;;;;;;29.20;17.05;;;;;;;1.82;100.00;100041.84;10280536;28;20049;-69
2021/12/05 06:37:13;;;;;;;33.55;17.90;;;;;;;1.72;100.00;100046.44;10291227;28;20045;-69
2021/12/05 06:47:27;;;;;;;27.20;17.10;;;;;;;1.68;100.00;100067.78;10291990;28;20087;-68
2021/12/05 06:52:23;;;;;;;30.95;15.95;;;;;;;1.67;100.00;100066.13;10279697;28;20045;-69
2021/12/05 06:57:20;;;;;;;30.17;18.45;;;;;;;1.77;100.00;100086.88;10298197;28;20451;-67
2021/12/05 07:02:19;;;;;;;29.73;16.90;;;;;;;1.72;100.00;100090.41;10284291;28;20037;-66
2021/12/05 07:07:25;;;;;;;30.33;17.65;;;;;;;1.79;100.00;100101.69;10298654;28;20049;-70
2021/12/05 07:22:41;;;;;;;28.00;16.27;;;;;;;1.64;100.00;100136.75;10278327;28;20041;-70
2021/12/05 07:43:16;;;;;;;27.85;16.65;;;;;;;1.65;100.00;100151.88;10301048;28;20562;-68
2021/12/05 07:48:20;;;;;;;26.77;16.75;;;;;;;1.75;100.00;100162.63;10306411;28;20045;-68
2021/12/05 07:53:26;;;;;;;26.20;17.02;;;;;;;1.83;100.00;100170.16;10276696;28;20500;-68
2021/12/05 08:19:04;;;;;;;24.92;15.98;;;;;;;1.91;100.00;100216.53;10286489;28;20044;-69
2021/12/05 08:24:01;;;;;;;26.00;15.25;;;;;;;1.98;100.00;100223.25;10280734;28;20049;-68
2021/12/05 08:39:29;;;;;;;29.73;17.25;;;;;;;1.91;100.00;100254.25;10271274;28;20044;-72
2021/12/05 09:26:39;;;;;;;26.70;17.42;;;;;;;1.75;100.00;100332.44;10266733;28;20041;-71
2021/12/05 10:01:49;;;;;;;23.83;15.05;;;;;;;1.63;100.00;100383.91;10270551;28;20090;-68
2021/12/05 10:03:10;;;;;;;23.23;13.73;;;;;;;1.78;100.00;100385.78;10277997;28;20192;-68
2021/12/05 10:13:34;;;;;;;20.35;13.40;;;;;;;1.81;100.00;100387.97;10265648;28;20156;-68
2021/12/05 10:19:13;;;;;;;23.92;15.73;;;;;;;1.78;100.00;100396.56;10265387;28;20095;-68
2021/12/05 10:40:08;;;;;;;26.77;16.75;;;;;;;2.15;100.00;100411.72;10270523;28;20136;-70
2021/12/05 10:45:08;;;;;;;28.15;18.80;;;;;;;2.13;100.00;100413.88;10291149;28;20102;-69
2021/12/05 10:50:42;;;;;;;25.50;16.50;;;;;;;2.14;100.00;100418.22;10272843;28;20098;-68
2021/12/05 10:55:38;;;;;;;28.20;17.65;;;;;;;2.18;100.00;100427.38;10266119;28;20110;-69
2021/12/05 11:00:35;;;;;;;26.15;16.02;;;;;;;2.08;100.00;100432.75;10271876;28;20049;-68
2021/12/05 11:05:33;;;;;;;31.30;17.25;;;;;;;2.42;100.00;100437.66;10274319;28;20124;-68
2021/12/05 11:10:42;;;;;;;26.80;18.33;;;;;;;2.43;100.00;100452.75;10276583;28;20634;-68
2021/12/05 11:15:39;;;;;;;27.15;18.75;;;;;;;2.42;100.00;100456.53;10271002;28;20055;-67
2021/12/05 11:20:41;;;;;;;31.50;20.30;;;;;;;2.50;100.00;100455.97;10286511;28;20102;-67
2021/12/05 11:25:42;;;;;;;27.63;17.67;;;;;;;2.45;100.00;100464.88;10272054;28;20107;-68
2021/12/05 11:30:40;;;;;;;28.17;17.92;;;;;;;2.70;100.00;100460.56;10266694;28;20064;-69
2021/12/05 11:35:44;;;;;;;30.23;19.88;;;;;;;2.76;100.00;100466.75;10272010;28;20064;-68
2021/12/05 11:40:50;;;;;;;27.45;18.45;;;;;;;2.65;100.00;100472.19;10261983;28;20737;-69
2021/12/05 11:46:00;;;;;;;28.35;17.90;;;;;;;2.72;100.00;100475.41;10269692;28;20497;-68
2021/12/05 11:50:59;;;;;;;30.77;20.27;;;;;;;2.71;100.00;100481.06;10264217;28;20045;-68
2021/12/05 11:55:55;;;;;;;30.10;19.27;;;;;;;2.86;100.00;100474.88;10269002;28;20530;-68
2021/12/05 12:00:52;;;;;;;33.22;19.50;;;;;;;2.79;100.00;100485.13;10270560;28;20076;-68
2021/12/05 12:05:48;;;;;;;28.50;19.10;;;;;;;2.91;100.00;100485.66;10272549;28;20052;-69
2021/12/05 12:10:48;;;;;;;33.35;22.50;;;;;;;3.00;100.00;100494.81;10293349;28;20056;-68
2021/12/05 12:15:58;;;;;;;31.35;22.23;;;;;;;3.02;100.00;100500.78;10281870;28;20041;-68
2021/12/05 12:20:57;;;;;;;33.97;22.20;;;;;;;2.65;100.00;100491.06;10273346;28;20045;-70
2021/12/05 12:25:58;;;;;;;35.47;22.60;;;;;;;2.85;100.00;100489.44;10263509;28;20156;-69
2021/12/05 12:31:04;;;;;;;38.25;24.00;;;;;;;2.77;100.00;100495.41;10272230;28;20063;-69
2021/12/05 12:36:04;;;;;;;36.22;22.38;;;;;;;2.79;100.00;100495.94;10268123;28;20047;-68
2021/12/05 12:41:00;;;;;;;36.13;23.95;;;;;;;2.96;100.00;100496.44;10261465;28;20049;-70
2021/12/05 12:45:57;;;;;;;37.25;24.38;;;;;;;2.79;100.00;100506.75;10258080;28;20083;-70
2021/12/05 12:50:54;;;;;;;38.85;25.63;;;;;;;2.80;100.00;100517.25;10257928;28;20135;-70
2021/12/05 12:56:09;;;;;;;37.78;25.45;;;;;;;2.77;100.00;100525.09;10267938;28;20095;-70
2021/12/05 13:01:16;;;;;;;36.83;22.00;;;;;;;2.77;100.00;100533.19;10268122;28;20111;-69
2021/12/05 13:11:28;;;;;;;38.28;24.85;;;;;;;2.52;100.00;100540.19;10269518;28;20083;-68
2021/12/05 13:16:31;;;;;;;41.38;24.00;;;;;;;2.48;100.00;100544.50;10266103;28;20057;-68
2021/12/05 13:21:36;;;;;;;38.30;23.45;;;;;;;2.57;100.00;100542.88;10264546;28;20444;-68
2021/12/05 13:26:36;;;;;;;43.42;26.25;;;;;;;2.64;100.00;100548.81;10266602;28;20126;-68
2021/12/05 13:31:36;;;;;;;35.92;23.50;;;;;;;2.69;100.00;100567.75;10267726;28;20040;-68
2021/12/05 13:36:34;;;;;;;35.88;23.13;;;;;;;2.70;100.00;100573.97;10265249;28;20088;-68
2021/12/05 13:41:32;;;;;;;38.50;24.67;;;;;;;2.47;100.00;100572.56;10265434;28;20057;-68
2021/12/05 13:46:32;;;;;;;41.25;26.08;;;;;;;2.67;100.00;100574.47;10264790;28;20136;-68
2021/12/05 13:51:29;;;;;;;36.83;21.42;;;;;;;2.68;100.00;100582.31;10266014;28;20104;-68
2021/12/05 13:56:28;;;;;;;33.78;21.42;;;;;;;2.70;100.00;100590.97;10260466;28;20045;-66
2021/12/05 14:01:28;;;;;;;37.47;21.60;;;;;;;2.54;100.00;100597.41;10268830;28;20535;-68
2021/12/05 14:06:43;;;;;;;38.70;23.80;;;;;;;2.59;100.00;100605.50;10267857;28;20052;-69
2021/12/05 14:11:44;;;;;;;33.63;22.17;;;;;;;2.67;100.00;100610.41;10267549;28;20530;-68
2021/12/05 14:16:44;;;;;;;37.72;21.45;;;;;;;2.42;100.00;100621.16;10272437;28;20072;-69
2021/12/05 14:21:43;;;;;;;34.15;20.98;;;;;;;2.60;100.00;100626.06;10267686;28;20077;-67
2021/12/05 14:26:40;;;;;;;32.22;20.83;;;;;;;2.65;100.00;100636.84;10270519;28;20045;-67
2021/12/05 14:31:41;;;;;;;32.72;20.20;;;;;;;2.53;100.00;100655.19;10278643;28;20412;-68
2021/12/05 14:36:45;;;;;;;33.35;20.95;;;;;;;2.48;100.00;100668.63;10267867;28;20079;-69
2021/12/05 14:41:44;;;;;;;32.00;20.05;;;;;;;2.48;100.00;100671.34;10275749;28;20072;-69
2021/12/05 14:46:54;;;;;;;33.58;20.83;;;;;;;2.29;100.00;100677.22;10272136;28;20169;-69
2021/12/05 14:51:52;;;;;;;32.80;20.55;;;;;;;2.23;100.00;100691.75;10272886;28;20523;-68
2021/12/05 14:56:49;;;;;;;30.20;18.83;;;;;;;2.11;100.00;100701.94;10260687;28;20144;-68
2021/12/05 15:01:53;;;;;;;30.52;18.55;;;;;;;2.14;100.00;100701.44;10276329;28;20060;-70
2021/12/05 15:06:50;;;;;;;30.33;18.38;;;;;;;2.10;100.00;100700.31;10271342;28;20135;-68
2021/12/05 15:11:53;;;;;;;28.02;17.23;;;;;;;2.08;100.00;100708.66;10279695;28;20037;-68
2021/12/05 15:17:11;;;;;;;27.25;18.20;;;;;;;2.00;100.00;100721.84;10277853;28;20037;-69
2021/12/05 15:22:08;;;;;;;29.38;18.50;;;;;;;2.07;100.00;100725.13;10267524;28;20037;-69
2021/12/05 15:27:12;;;;;;;28.83;17.10;;;;;;;2.01;100.00;100728.84;10270092;28;20126;-69
2021/12/05 15:32:15;;;;;;;27.67;16.58;;;;;;;2.02;100.00;100746.66;10283011;28;20369;-68
2021/12/05 15:37:17;;;;;;;27.08;18.42;;;;;;;1.96;100.00;100748.50;10276231;28;20048;-69
2021/12/05 15:42:36;;;;;;;29.83;18.30;;;;;;;1.91;100.00;100751.19;10281209;28;20134;-69
2021/12/05 15:47:34;;;;;;;29.88;18.20;;;;;;;1.79;100.00;100764.84;10283208;28;20048;-68
2021/12/05 15:52:37;;;;;;;28.58;18.17;;;;;;;1.78;100.00;100771.28;10276024;28;20174;-67
2021/12/05 15:57:37;;;;;;;27.20;18.23;;;;;;;1.88;100.00;100773.25;10280133;28;20068;-68
2021/12/05 16:02:33;;;;;;;28.95;18.75;;;;;;;1.96;100.00;100780.88;10281074;28;20084;-69
2021/12/05 16:07:32;;;;;;;25.02;15.05;;;;;;;1.95;100.00;100786.50;10271649;28;20052;-68
2021/12/05 16:12:37;;;;;;;25.30;16.50;;;;;;;1.91;100.00;100807.00;10282025;28;20049;-69
2021/12/05 16:17:34;;;;;;;27.58;16.65;;;;;;;1.91;100.00;100815.09;10289691;28;20048;-69
2021/12/05 16:22:31;;;;;;;25.90;16.20;;;;;;;1.87;100.00;100818.28;10279729;28;20084;-68
2021/12/05 16:27:27;;;;;;;26.55;15.82;;;;;;;1.67;100.00;100820.78;10270813;28;20406;-68
2021/12/05 16:32:27;;;;;;;25.00;16.20;;;;;;;1.86;100.00;100830.16;10282706;28;20045;-68
2021/12/05 16:37:30;;;;;;;29.90;17.73;;;;;;;1.83;100.00;100849.53;10274866;28;20495;-69
2021/12/05 16:42:26;;;;;;;28.10;16.52;;;;;;;1.67;100.00;100848.59;10284438;28;20057;-68
2021/12/05 16:47:27;;;;;;;28.48;16.48;;;;;;;1.88;100.00;100854.97;10276611;28;20087;-69
2021/12/05 16:52:34;;;;;;;29.65;16.95;;;;;;;1.97;100.00;100854.50;10273549;28;20049;-67
2021/12/05 16:57:43;;;;;;;32.15;19.90;;;;;;;1.88;100.00;100857.66;10278541;28;20076;-69
2021/12/05 17:02:51;;;;;;;28.30;17.38;;;;;;;2.03;100.00;100867.75;10270347;28;20057;-69
2021/12/05 17:08:01;;;;;;;32.85;19.33;;;;;;;1.96;100.00;100871.75;10264589;28;20055;-68
2021/12/05 17:13:08;;;;;;;32.70;19.98;;;;;;;1.84;100.00;100870.03;10265150;28;20508;-68
2021/12/05 17:18:15;;;;;;;36.35;20.90;;;;;;;2.05;100.00;100886.41;10281053;28;20091;-69
2021/12/05 17:23:22;;;;;;;33.15;20.42;;;;;;;1.95;100.00;100897.91;10275902;28;20071;-69
2021/12/05 17:28:44;;;;;;;38.53;21.65;;;;;;;2.02;100.00;100903.06;10282601;28;20079;-69
2021/12/05 17:33:46;;;;;;;38.63;20.48;;;;;;;1.94;100.00;100907.06;10266850;28;20036;-69
2021/12/05 17:38:43;;;;;;;34.22;18.80;;;;;;;1.98;100.00;100920.84;10274854;28;20049;-68
2021/12/05 17:43:39;;;;;;;36.45;22.33;;;;;;;2.04;100.00;100927.91;10285917;28;20140;-69
2021/12/05 17:48:36;;;;;;;41.13;23.05;;;;;;;1.96;100.00;100925.69;10288872;28;20045;-67
2021/12/05 17:53:37;;;;;;;37.45;21.83;;;;;;;1.88;100.00;100935.88;10272955;28;20069;-69
2021/12/05 18:03:40;;;;;;;44.00;23.10;;;;;;;1.97;100.00;100938.91;10260845;28;20049;-69
2021/12/05 18:08:36;;;;;;;37.83;21.80;;;;;;;2.21;100.00;100952.91;10267466;28;20053;-68
2021/12/05 18:13:36;;;;;;;34.72;20.15;;;;;;;2.08;100.00;100956.81;10251141;28;20052;-69
2021/12/05 18:18:35;;;;;;;39.20;21.98;;;;;;;2.13;100.00;100957.94;10252555;28;20137;-68
2021/12/05 18:23:34;;;;;;;40.00;23.70;;;;;;;1.98;100.00;100972.91;10274384;28;20045;-68
2021/12/05 18:28:32;;;;;;;40.20;24.30;;;;;;;2.10;100.00;100970.06;10276324;28;20053;-68
2021/12/05 18:33:30;;;;;;;41.25;22.63;;;;;;;2.09;100.00;100977.34;10270518;28;20700;-68
2021/12/05 18:38:27;;;;;;;40.67;22.40;;;;;;;2.13;100.00;100985.72;10263207;28;20141;-68
2021/12/05 18:43:29;;;;;;;42.67;23.55;;;;;;;1.93;100.00;100999.00;10272930;28;20471;-69
2021/12/05 18:48:26;;;;;;;39.15;21.00;;;;;;;2.14;100.00;100998.16;10264576;28;20049;-69
2021/12/05 18:53:22;;;;;;;37.78;23.33;;;;;;;2.16;100.00;101001.41;10269800;28;20464;-69
2021/12/05 18:58:23;;;;;;;42.58;24.33;;;;;;;2.12;100.00;101011.09;10262932;28;20076;-67
2021/12/05 19:09:04;;;;;;;44.63;24.48;;;;;;;2.11;100.00;101009.44;10267078;28;20084;-68
2021/12/05 19:13:54;;;;;;;43.45;25.17;;;;;;;2.08;100.00;101020.75;10267098;28;20104;-68
2021/12/05 19:18:50;;;;;;;44.50;25.45;;;;;;;1.99;100.00;101022.25;10262875;28;20098;-67
2021/12/05 19:23:47;;;;;;;38.00;22.67;;;;;;;2.09;100.00;101027.78;10271261;28;20052;-68
2021/12/05 19:28:44;;;;;;;43.05;24.85;;;;;;;2.07;100.00;101029.91;10280776;28;20041;-69
2021/12/05 19:33:41;;;;;;;44.00;23.80;;;;;;;1.99;100.00;101033.03;10272402;28;20129;-69
2021/12/05 19:38:37;;;;;;;37.90;22.63;;;;;;;1.97;100.00;101045.97;10286291;28;20040;-68
2021/12/05 19:43:38;;;;;;;41.67;23.55;;;;;;;1.87;100.00;101058.25;10280177;28;20052;-67
2021/12/05 19:48:35;;;;;;;41.60;23.17;;;;;;;1.95;100.00;101058.88;10285613;28;20128;-68
2021/12/05 19:53:31;;;;;;;39.63;23.92;;;;;;;1.70;100.00;101062.91;10274721;28;20103;-68
2021/12/05 19:58:29;;;;;;;41.83;24.88;;;;;;;1.77;100.00;101074.31;10276834;28;20056;-67
2021/12/05 20:03:26;;;;;;;40.45;22.25;;;;;;;1.94;100.00;101073.44;10278786;28;20052;-69
2021/12/05 20:08:23;;;;;;;41.58;24.70;;;;;;;1.95;100.00;101075.06;10281999;28;20411;-69
2021/12/05 20:13:20;;;;;;;41.47;24.75;;;;;;;1.94;100.00;101073.44;10279658;28;20500;-69
2021/12/05 20:18:17;;;;;;;46.13;24.45;;;;;;;1.96;100.00;101076.72;10276980;28;20517;-69
2021/12/05 20:23:18;;;;;;;44.03;23.88;;;;;;;2.02;100.00;101075.69;10278209;28;20411;-69
2021/12/05 20:28:15;;;;;;;47.30;25.67;;;;;;;1.99;100.00;101084.28;10282249;28;20251;-69
2021/12/05 20:33:12;;;;;;;42.70;24.55;;;;;;;2.04;100.00;101095.13;10281715;28;20476;-68
2021/12/05 20:38:10;;;;;;;44.22;24.70;;;;;;;2.00;100.00;101099.41;10274373;28;20048;-69
2021/12/05 20:43:10;;;;;;;47.78;25.85;;;;;;;2.02;100.00;101108.06;10291632;28;20409;-68
2021/12/05 20:48:07;;;;;;;46.15;25.45;;;;;;;2.03;100.00;101107.00;10273298;28;20121;-69
2021/12/05 20:53:05;;;;;;;43.03;23.15;;;;;;;2.03;100.00;101117.78;10276788;28;20079;-68
2021/12/05 20:58:02;;;;;;;40.92;21.90;;;;;;;2.06;100.00;101126.19;10264933;28;20083;-69
2021/12/05 21:03:02;;;;;;;42.22;24.15;;;;;;;2.12;100.00;101156.75;10260403;28;20500;-73
2021/12/05 21:08:01;;;;;;;38.15;21.85;;;;;;;2.14;100.00;101160.00;10259397;28;20157;-69
2021/12/05 21:12:59;;;;;;;38.42;23.15;;;;;;;2.15;100.00;101167.03;10275448;28;20053;-69
2021/12/05 21:17:57;;;;;;;43.53;24.08;;;;;;;2.09;100.00;101160.75;10265322;28;20071;-70
2021/12/05 21:22:55;;;;;;;39.42;22.70;;;;;;;2.17;100.00;101164.91;10255825;28;20114;-67
2021/12/05 21:27:52;;;;;;;49.08;25.20;;;;;;;2.10;100.00;101164.28;10257081;28;20079;-67
2021/12/05 21:32:50;;;;;;;45.58;25.40;;;;;;;2.16;100.00;101170.53;10258373;28;20398;-73
2021/12/05 21:37:48;;;;;;;41.63;25.27;;;;;;;2.17;100.00;101164.09;10266829;28;20037;-73
2021/12/05 21:42:44;;;;;;;42.20;24.30;;;;;;;2.19;100.00;101176.25;10265128;28;20095;-72
2021/12/05 21:47:41;;;;;;;49.80;24.60;;;;;;;2.08;100.00;101193.38;10266028;28;20532;-72
2021/12/05 21:52:38;;;;;;;44.53;26.70;;;;;;;2.08;100.00;101193.38;10266708;28;20072;-73
2021/12/05 21:57:35;;;;;;;43.25;24.27;;;;;;;1.97;100.00;101207.78;10266100;28;20053;-67
2021/12/05 22:02:31;;;;;;;46.65;25.80;;;;;;;2.10;100.00;101218.22;10265872;28;20114;-71
2021/12/05 22:07:28;;;;;;;48.58;26.65;;;;;;;2.06;100.00;101225.97;10275217;28;20111;-71
2021/12/05 22:12:25;;;;;;;48.55;26.23;;;;;;;2.10;100.00;101223.63;10274023;28;20504;-70
2021/12/05 22:17:23;;;;;;;44.42;25.35;;;;;;;2.05;100.00;101242.44;10285441;28;20055;-72
2021/12/05 22:22:21;;;;;;;43.28;23.75;;;;;;;2.17;100.00;101251.22;10268221;28;20069;-73
2021/12/05 22:27:17;;;;;;;45.70;26.77;;;;;;;1.96;100.00;101249.31;10267832;28;20114;-71
2021/12/05 22:32:15;;;;;;;48.28;26.65;;;;;;;2.07;100.00;101251.91;10270448;28;20452;-72
2021/12/05 22:37:11;;;;;;;54.30;26.00;;;;;;;2.08;100.00;101252.72;10289224;28;20083;-72
2021/12/05 22:42:09;;;;;;;53.92;29.70;;;;;;;2.13;100.00;101255.47;10270202;28;20115;-70
2021/12/05 22:47:06;;;;;;;47.65;27.65;;;;;;;2.17;100.00;101262.03;10232528;28;20581;-70
2021/12/05 22:52:04;;;;;;;44.03;26.88;;;;;;;2.07;100.00;101267.28;10233104;28;20061;-71
2021/12/05 22:57:01;;;;;;;52.47;27.45;;;;;;;2.20;100.00;101277.72;10225904;28;20046;-70
2021/12/05 23:01:59;;;;;;;51.67;27.20;;;;;;;2.20;100.00;101283.09;10235280;28;20137;-69
2021/12/05 23:06:57;;;;;;;47.25;26.13;;;;;;;2.18;100.00;101282.56;10231387;28;20052;-69
2021/12/05 23:11:56;;;;;;;51.70;27.25;;;;;;;2.23;100.00;101281.81;10228256;28;20073;-69
2021/12/05 23:16:53;;;;;;;46.63;26.05;;;;;;;2.14;100.00;101289.50;10232782;28;20465;-72
2021/12/05 23:21:54;;;;;;;47.45;28.10;;;;;;;2.19;100.00;101284.19;10231719;28;20132;-73
2021/12/05 23:26:52;;;;;;;49.35;28.10;;;;;;;2.08;100.00;101290.47;10223183;28;20103;-72
2021/12/05 23:31:50;;;;;;;48.17;27.98;;;;;;;2.15;100.00;101291.13;10224452;28;20576;-72
2021/12/05 23:36:47;;;;;;;49.13;26.83;;;;;;;2.12;100.00;101283.53;10239092;28;20076;-72
2021/12/05 23:41:46;;;;;;;45.03;26.13;;;;;;;2.10;100.00;101283.78;10238156;28;20071;-72
2021/12/05 23:46:42;;;;;;;49.10;26.90;;;;;;;2.08;100.00;101290.47;10236931;28;20046;-72
2021/12/05 23:51:39;;;;;;;48.92;26.75;;;;;;;2.12;100.00;101299.72;10232879;28;20067;-70
2021/12/05 23:56:41;;;;;;;44.95;25.20;;;;;;;2.09;100.00;101302.94;10230683;28;20041;-70
